Windsor, CA

7:10 PM PDT on August 30, 2015 (GMT -0700)
Sonoma County | | Change Station
CLOSE
Current Station
Airport
Location: Santa Rosa,
Elevation: 125 ft
Nearby Weather Stations

Elev 125 ft 38.50 °N, 122.81 °W | Updated 17 minutes ago

Scattered Clouds
Scattered Clouds
81 °F
Feels Like 81 °F
N
7
Wind Variable Wind from WNW

Today
High -- | Low -- °F
--% Chance of Precip.
Yesterday
High -- | Low -- °F
Precip. -- in
6:38 AM 7:44 PM
Full, 97% visible
Pressure 29.88 in
Visibility 10.0 miles
Clouds Scattered Clouds 25000 ft
Heat Index 81 °F
Dew Point 56 °F
Humidity 42%
Rainfall 0.00 in
Snow Depth Not available.
UV 0 out of 12
Pollen 6.40 out of 12
Air Quality Not available.
Flu Activity Not available.
METAR KSTS 310153Z 29006KT 10SM SCT250 27/13 A2990 RMK AO2 SLP117 T02720133
Pressure 29.88 in
Visibility 10.0 miles
Clouds Scattered Clouds 25000 ft
Heat Index 81 °F
Dew Point 56 °F
Humidity 42%
Rainfall 0.00 in
Snow Depth Not available.
UV 0 out of 12
Pollen 6.40 out of 12
Air Quality Not available.
Flu Activity Not available.
METAR KSTS 310153Z 29006KT 10SM SCT250 27/13 A2990 RMK AO2 SLP117 T02720133

10-Day Weather Forecast

×

Almanac

Astronomy

Aug. 30, 2015 Rise Set
Actual Time
Civil Twilight
Nautical Twilight
Astronomical Twilight
Moon
Length of Visible Light
Length of Day
Tomorrow will be .
, % of the Moon is Illuminated

Today's Extremes

State Highs State Lows

Community

WunderPhotos

Upload Photos

1,851,157 photos uploaded!

WunderBlogs® & News

Nearby

Air Quality

  Air Quality AQ Index Pollutant
Not available.

Snow Depth

Station Depth Elevation

Earthquake Activity

City Distance Mag. Time & Date
Minimum magnitude displayed is 2.5.

Coastal Water Temperatures

Place Temperature

Stations

Nearby Weather Stations

Station Location Temp. Windchill Dew Point Humidity Wind Precip. Elev Updated Type